sensor_id;sensor_type;location;lat;lon;timestamp;P1;durP1;ratioP1;P2;durP2;ratioP2
8230;SDS011;4156;50.908;6.974;2022-09-03T00:02:15;2.00;;;1.80;;
8230;SDS011;4156;50.908;6.974;2022-09-03T00:10:30;5.07;;;1.53;;
8230;SDS011;4156;50.908;6.974;2022-09-03T00:13:03;2.23;;;1.47;;
8230;SDS011;4156;50.908;6.974;2022-09-03T00:15:31;1.40;;;1.30;;
8230;SDS011;4156;50.908;6.974;2022-09-03T00:18:01;9.93;;;1.60;;
8230;SDS011;4156;50.908;6.974;2022-09-03T00:20:44;2.13;;;1.37;;
8230;SDS011;4156;50.908;6.974;2022-09-03T00:23:19;1.90;;;1.40;;
8230;SDS011;4156;50.908;6.974;2022-09-03T00:25:54;5.13;;;1.63;;
8230;SDS011;4156;50.908;6.974;2022-09-03T00:28:26;2.10;;;1.10;;
8230;SDS011;4156;50.908;6.974;2022-09-03T00:31:03;2.03;;;1.30;;
8230;SDS011;4156;50.908;6.974;2022-09-03T00:33:34;1.87;;;1.57;;
8230;SDS011;4156;50.908;6.974;2022-09-03T00:36:08;1.53;;;1.43;;
8230;SDS011;4156;50.908;6.974;2022-09-03T00:38:49;1.47;;;1.20;;
8230;SDS011;4156;50.908;6.974;2022-09-03T00:43:55;4.23;;;1.80;;
8230;SDS011;4156;50.908;6.974;2022-09-03T00:46:38;3.07;;;1.40;;
8230;SDS011;4156;50.908;6.974;2022-09-03T00:57:19;3.27;;;1.50;;
8230;SDS011;4156;50.908;6.974;2022-09-03T01:02:55;2.93;;;1.83;;
8230;SDS011;4156;50.908;6.974;2022-09-03T01:16:33;3.67;;;1.70;;
8230;SDS011;4156;50.908;6.974;2022-09-03T01:22:16;1.93;;;1.50;;
8230;SDS011;4156;50.908;6.974;2022-09-03T01:30:27;3.13;;;1.60;;
8230;SDS011;4156;50.908;6.974;2022-09-03T01:33:16;3.30;;;1.60;;
8230;SDS011;4156;50.908;6.974;2022-09-03T01:35:59;2.50;;;1.50;;
8230;SDS011;4156;50.908;6.974;2022-09-03T01:39:00;3.53;;;1.47;;
8230;SDS011;4156;50.908;6.974;2022-09-03T01:44:52;2.57;;;1.80;;
8230;SDS011;4156;50.908;6.974;2022-09-03T01:50:37;5.17;;;1.50;;
8230;SDS011;4156;50.908;6.974;2022-09-03T02:01:52;2.43;;;1.50;;
8230;SDS011;4156;50.908;6.974;2022-09-03T02:04:25;4.20;;;1.40;;
8230;SDS011;4156;50.908;6.974;2022-09-03T02:06:51;1.50;;;1.40;;
8230;SDS011;4156;50.908;6.974;2022-09-03T02:09:18;2.67;;;1.50;;
8230;SDS011;4156;50.908;6.974;2022-09-03T02:11:45;1.40;;;1.30;;
8230;SDS011;4156;50.908;6.974;2022-09-03T02:14:44;1.70;;;1.40;;
8230;SDS011;4156;50.908;6.974;2022-09-03T02:17:10;3.37;;;1.60;;
8230;SDS011;4156;50.908;6.974;2022-09-03T02:19:36;3.53;;;1.40;;
8230;SDS011;4156;50.908;6.974;2022-09-03T02:22:03;2.73;;;1.60;;
8230;SDS011;4156;50.908;6.974;2022-09-03T02:24:29;2.20;;;1.33;;
8230;SDS011;4156;50.908;6.974;2022-09-03T02:26:55;5.17;;;1.50;;
8230;SDS011;4156;50.908;6.974;2022-09-03T02:29:21;1.83;;;1.60;;
8230;SDS011;4156;50.908;6.974;2022-09-03T02:31:47;4.93;;;1.90;;
8230;SDS011;4156;50.908;6.974;2022-09-03T02:34:13;2.53;;;1.90;;
8230;SDS011;4156;50.908;6.974;2022-09-03T02:36:40;1.90;;;1.60;;
8230;SDS011;4156;50.908;6.974;2022-09-03T02:39:11;3.53;;;1.60;;
8230;SDS011;4156;50.908;6.974;2022-09-03T02:41:38;4.77;;;1.50;;
8230;SDS011;4156;50.908;6.974;2022-09-03T02:46:42;2.67;;;1.57;;
8230;SDS011;4156;50.908;6.974;2022-09-03T02:49:11;2.37;;;1.53;;
8230;SDS011;4156;50.908;6.974;2022-09-03T02:51:39;2.10;;;1.30;;
8230;SDS011;4156;50.908;6.974;2022-09-03T02:54:06;4.40;;;1.87;;
8230;SDS011;4156;50.908;6.974;2022-09-03T02:56:33;3.50;;;1.53;;
8230;SDS011;4156;50.908;6.974;2022-09-03T02:58:58;3.83;;;1.63;;
8230;SDS011;4156;50.908;6.974;2022-09-03T03:01:25;2.70;;;1.70;;
8230;SDS011;4156;50.908;6.974;2022-09-03T03:03:51;1.90;;;1.60;;
8230;SDS011;4156;50.908;6.974;2022-09-03T03:06:17;2.20;;;1.67;;
8230;SDS011;4156;50.908;6.974;2022-09-03T03:08:49;1.50;;;1.40;;
8230;SDS011;4156;50.908;6.974;2022-09-03T03:11:16;4.30;;;1.73;;
8230;SDS011;4156;50.908;6.974;2022-09-03T03:13:44;2.20;;;1.53;;
8230;SDS011;4156;50.908;6.974;2022-09-03T03:16:10;3.70;;;1.40;;
8230;SDS011;4156;50.908;6.974;2022-09-03T03:18:37;2.13;;;1.20;;
8230;SDS011;4156;50.908;6.974;2022-09-03T03:21:04;2.03;;;1.40;;
8230;SDS011;4156;50.908;6.974;2022-09-03T03:23:31;2.90;;;1.43;;
8230;SDS011;4156;50.908;6.974;2022-09-03T03:25:59;1.47;;;1.37;;
8230;SDS011;4156;50.908;6.974;2022-09-03T03:28:29;1.50;;;1.20;;
8230;SDS011;4156;50.908;6.974;2022-09-03T03:31:05;1.33;;;1.23;;
8230;SDS011;4156;50.908;6.974;2022-09-03T03:33:31;1.30;;;1.20;;
8230;SDS011;4156;50.908;6.974;2022-09-03T03:35:57;2.20;;;1.40;;
8230;SDS011;4156;50.908;6.974;2022-09-03T03:38:23;1.57;;;1.23;;
8230;SDS011;4156;50.908;6.974;2022-09-03T03:40:48;1.50;;;1.40;;
8230;SDS011;4156;50.908;6.974;2022-09-03T03:43:14;2.27;;;1.30;;
8230;SDS011;4156;50.908;6.974;2022-09-03T03:45:39;1.40;;;1.30;;
8230;SDS011;4156;50.908;6.974;2022-09-03T03:48:04;3.93;;;1.50;;
8230;SDS011;4156;50.908;6.974;2022-09-03T03:50:30;1.60;;;1.27;;
8230;SDS011;4156;50.908;6.974;2022-09-03T03:52:58;1.37;;;1.27;;
8230;SDS011;4156;50.908;6.974;2022-09-03T03:55:24;1.40;;;1.23;;
8230;SDS011;4156;50.908;6.974;2022-09-03T03:57:50;2.37;;;1.73;;
8230;SDS011;4156;50.908;6.974;2022-09-03T04:00:15;1.27;;;1.17;;
8230;SDS011;4156;50.908;6.974;2022-09-03T04:02:41;1.37;;;1.27;;
8230;SDS011;4156;50.908;6.974;2022-09-03T04:05:07;1.70;;;1.50;;
8230;SDS011;4156;50.908;6.974;2022-09-03T04:07:32;2.37;;;1.40;;
8230;SDS011;4156;50.908;6.974;2022-09-03T04:09:58;1.43;;;1.20;;
8230;SDS011;4156;50.908;6.974;2022-09-03T04:12:25;2.20;;;1.57;;
8230;SDS011;4156;50.908;6.974;2022-09-03T04:14:51;1.30;;;1.20;;
8230;SDS011;4156;50.908;6.974;2022-09-03T04:17:16;2.13;;;1.37;;
8230;SDS011;4156;50.908;6.974;2022-09-03T04:19:42;4.10;;;1.40;;
8230;SDS011;4156;50.908;6.974;2022-09-03T04:22:07;1.83;;;1.37;;
8230;SDS011;4156;50.908;6.974;2022-09-03T04:24:33;3.53;;;1.30;;
8230;SDS011;4156;50.908;6.974;2022-09-03T04:26:59;1.53;;;1.00;;
8230;SDS011;4156;50.908;6.974;2022-09-03T04:29:25;2.93;;;1.30;;
8230;SDS011;4156;50.908;6.974;2022-09-03T04:31:50;2.30;;;1.37;;
8230;SDS011;4156;50.908;6.974;2022-09-03T04:34:34;4.97;;;1.30;;
8230;SDS011;4156;50.908;6.974;2022-09-03T04:37:00;1.40;;;1.30;;
8230;SDS011;4156;50.908;6.974;2022-09-03T04:39:25;2.23;;;1.10;;
8230;SDS011;4156;50.908;6.974;2022-09-03T04:41:51;4.23;;;1.20;;
8230;SDS011;4156;50.908;6.974;2022-09-03T04:44:16;1.60;;;1.20;;
8230;SDS011;4156;50.908;6.974;2022-09-03T04:46:42;1.43;;;1.17;;
8230;SDS011;4156;50.908;6.974;2022-09-03T04:49:08;1.07;;;1.07;;
8230;SDS011;4156;50.908;6.974;2022-09-03T04:51:34;2.60;;;1.17;;
8230;SDS011;4156;50.908;6.974;2022-09-03T04:54:02;2.53;;;1.20;;
8230;SDS011;4156;50.908;6.974;2022-09-03T04:56:29;1.57;;;1.37;;
8230;SDS011;4156;50.908;6.974;2022-09-03T04:58:57;1.63;;;1.27;;
8230;SDS011;4156;50.908;6.974;2022-09-03T05:01:24;1.77;;;1.30;;
8230;SDS011;4156;50.908;6.974;2022-09-03T05:03:51;1.87;;;1.10;;
8230;SDS011;4156;50.908;6.974;2022-09-03T05:06:18;1.43;;;1.30;;
8230;SDS011;4156;50.908;6.974;2022-09-03T05:08:47;1.87;;;1.30;;
8230;SDS011;4156;50.908;6.974;2022-09-03T05:11:13;1.20;;;1.10;;
8230;SDS011;4156;50.908;6.974;2022-09-03T05:13:39;1.40;;;1.17;;
8230;SDS011;4156;50.908;6.974;2022-09-03T05:16:07;4.17;;;1.50;;
8230;SDS011;4156;50.908;6.974;2022-09-03T05:18:34;2.00;;;1.37;;
8230;SDS011;4156;50.908;6.974;2022-09-03T05:21:01;2.73;;;1.50;;
8230;SDS011;4156;50.908;6.974;2022-09-03T05:23:35;2.40;;;1.27;;
8230;SDS011;4156;50.908;6.974;2022-09-03T05:26:03;1.67;;;1.20;;
8230;SDS011;4156;50.908;6.974;2022-09-03T05:28:35;1.67;;;1.40;;
8230;SDS011;4156;50.908;6.974;2022-09-03T05:31:05;1.80;;;1.33;;
8230;SDS011;4156;50.908;6.974;2022-09-03T05:33:39;3.60;;;1.27;;
8230;SDS011;4156;50.908;6.974;2022-09-03T05:36:08;2.27;;;1.07;;
8230;SDS011;4156;50.908;6.974;2022-09-03T05:38:35;1.30;;;1.20;;
8230;SDS011;4156;50.908;6.974;2022-09-03T05:41:02;2.73;;;1.30;;
8230;SDS011;4156;50.908;6.974;2022-09-03T05:43:30;2.00;;;1.55;;
8230;SDS011;4156;50.908;6.974;2022-09-03T05:46:00;1.40;;;1.30;;
8230;SDS011;4156;50.908;6.974;2022-09-03T05:48:31;1.10;;;1.07;;
8230;SDS011;4156;50.908;6.974;2022-09-03T05:50:58;3.27;;;1.27;;
8230;SDS011;4156;50.908;6.974;2022-09-03T05:53:29;2.40;;;1.70;;
8230;SDS011;4156;50.908;6.974;2022-09-03T05:55:57;1.67;;;1.20;;
8230;SDS011;4156;50.908;6.974;2022-09-03T05:58:24;2.20;;;1.23;;
8230;SDS011;4156;50.908;6.974;2022-09-03T06:00:54;1.40;;;1.20;;
8230;SDS011;4156;50.908;6.974;2022-09-03T06:03:19;1.63;;;1.53;;
8230;SDS011;4156;50.908;6.974;2022-09-03T06:05:48;1.40;;;1.30;;
8230;SDS011;4156;50.908;6.974;2022-09-03T06:08:15;4.13;;;1.30;;
8230;SDS011;4156;50.908;6.974;2022-09-03T06:10:41;2.20;;;1.27;;
8230;SDS011;4156;50.908;6.974;2022-09-03T06:13:06;4.27;;;1.40;;
8230;SDS011;4156;50.908;6.974;2022-09-03T06:15:32;1.37;;;1.07;;
8230;SDS011;4156;50.908;6.974;2022-09-03T06:17:57;1.43;;;1.33;;
8230;SDS011;4156;50.908;6.974;2022-09-03T06:20:22;2.20;;;1.30;;
8230;SDS011;4156;50.908;6.974;2022-09-03T06:22:51;1.90;;;1.30;;
8230;SDS011;4156;50.908;6.974;2022-09-03T06:25:17;1.90;;;1.37;;
8230;SDS011;4156;50.908;6.974;2022-09-03T06:27:43;5.10;;;1.40;;
8230;SDS011;4156;50.908;6.974;2022-09-03T06:30:09;1.33;;;1.20;;
8230;SDS011;4156;50.908;6.974;2022-09-03T06:32:42;2.97;;;1.40;;
8230;SDS011;4156;50.908;6.974;2022-09-03T06:35:09;5.70;;;1.67;;
8230;SDS011;4156;50.908;6.974;2022-09-03T06:37:38;1.80;;;1.30;;
8230;SDS011;4156;50.908;6.974;2022-09-03T06:40:04;1.73;;;1.10;;
8230;SDS011;4156;50.908;6.974;2022-09-03T06:42:32;2.83;;;1.20;;
8230;SDS011;4156;50.908;6.974;2022-09-03T06:44:58;1.60;;;1.27;;
8230;SDS011;4156;50.908;6.974;2022-09-03T06:47:23;1.30;;;1.20;;
8230;SDS011;4156;50.908;6.974;2022-09-03T06:49:49;1.30;;;1.20;;
8230;SDS011;4156;50.908;6.974;2022-09-03T06:52:15;1.30;;;1.20;;
8230;SDS011;4156;50.908;6.974;2022-09-03T06:54:40;1.40;;;1.30;;
8230;SDS011;4156;50.908;6.974;2022-09-03T06:57:06;3.53;;;1.30;;
8230;SDS011;4156;50.908;6.974;2022-09-03T06:59:31;1.00;;;0.90;;
8230;SDS011;4156;50.908;6.974;2022-09-03T07:01:57;1.60;;;1.20;;
8230;SDS011;4156;50.908;6.974;2022-09-03T07:04:24;1.40;;;1.30;;
8230;SDS011;4156;50.908;6.974;2022-09-03T07:06:51;1.33;;;1.20;;
8230;SDS011;4156;50.908;6.974;2022-09-03T07:09:17;3.40;;;1.50;;
8230;SDS011;4156;50.908;6.974;2022-09-03T07:11:42;4.63;;;1.67;;
8230;SDS011;4156;50.908;6.974;2022-09-03T07:14:11;2.20;;;1.60;;
8230;SDS011;4156;50.908;6.974;2022-09-03T07:16:37;1.70;;;1.37;;
8230;SDS011;4156;50.908;6.974;2022-09-03T07:19:04;1.77;;;1.50;;
8230;SDS011;4156;50.908;6.974;2022-09-03T07:21:30;2.00;;;1.43;;
8230;SDS011;4156;50.908;6.974;2022-09-03T07:24:03;4.57;;;1.40;;
8230;SDS011;4156;50.908;6.974;2022-09-03T07:26:31;1.50;;;1.40;;
8230;SDS011;4156;50.908;6.974;2022-09-03T07:28:58;2.13;;;1.30;;
8230;SDS011;4156;50.908;6.974;2022-09-03T07:31:37;2.93;;;1.30;;
8230;SDS011;4156;50.908;6.974;2022-09-03T07:34:04;1.43;;;1.03;;
8230;SDS011;4156;50.908;6.974;2022-09-03T07:36:41;1.63;;;1.40;;
8230;SDS011;4156;50.908;6.974;2022-09-03T07:39:10;1.60;;;1.40;;
8230;SDS011;4156;50.908;6.974;2022-09-03T07:41:36;2.30;;;1.73;;
8230;SDS011;4156;50.908;6.974;2022-09-03T07:44:03;3.50;;;1.90;;
8230;SDS011;4156;50.908;6.974;2022-09-03T07:46:32;2.67;;;1.17;;
8230;SDS011;4156;50.908;6.974;2022-09-03T07:49:00;1.37;;;1.27;;
8230;SDS011;4156;50.908;6.974;2022-09-03T07:51:27;1.80;;;1.27;;
8230;SDS011;4156;50.908;6.974;2022-09-03T07:53:56;1.93;;;1.30;;
8230;SDS011;4156;50.908;6.974;2022-09-03T07:56:23;2.13;;;1.30;;
8230;SDS011;4156;50.908;6.974;2022-09-03T07:58:50;3.20;;;1.13;;
8230;SDS011;4156;50.908;6.974;2022-09-03T08:01:17;2.13;;;1.30;;
8230;SDS011;4156;50.908;6.974;2022-09-03T08:03:45;1.30;;;1.20;;
8230;SDS011;4156;50.908;6.974;2022-09-03T08:06:14;1.60;;;1.20;;
8230;SDS011;4156;50.908;6.974;2022-09-03T08:08:40;1.13;;;1.07;;
8230;SDS011;4156;50.908;6.974;2022-09-03T08:11:13;3.13;;;1.10;;
8230;SDS011;4156;50.908;6.974;2022-09-03T08:13:52;1.63;;;1.43;;
8230;SDS011;4156;50.908;6.974;2022-09-03T08:16:21;3.90;;;1.93;;
8230;SDS011;4156;50.908;6.974;2022-09-03T08:18:46;2.37;;;1.60;;
8230;SDS011;4156;50.908;6.974;2022-09-03T08:21:15;1.50;;;1.10;;
8230;SDS011;4156;50.908;6.974;2022-09-03T08:23:44;1.90;;;1.53;;
8230;SDS011;4156;50.908;6.974;2022-09-03T08:26:11;1.87;;;1.27;;
8230;SDS011;4156;50.908;6.974;2022-09-03T08:28:38;1.53;;;1.43;;
8230;SDS011;4156;50.908;6.974;2022-09-03T08:31:05;4.63;;;1.60;;
8230;SDS011;4156;50.908;6.974;2022-09-03T08:33:33;1.90;;;1.50;;
8230;SDS011;4156;50.908;6.974;2022-09-03T08:36:03;1.40;;;1.20;;
8230;SDS011;4156;50.908;6.974;2022-09-03T08:38:30;1.60;;;1.40;;
8230;SDS011;4156;50.908;6.974;2022-09-03T08:41:06;2.10;;;1.50;;
8230;SDS011;4156;50.908;6.974;2022-09-03T08:43:42;1.50;;;1.40;;
8230;SDS011;4156;50.908;6.974;2022-09-03T08:58:02;2.10;;;1.30;;
8230;SDS011;4156;50.908;6.974;2022-09-03T09:03:25;3.33;;;1.43;;
8230;SDS011;4156;50.908;6.974;2022-09-03T09:06:07;3.60;;;1.67;;
8230;SDS011;4156;50.908;6.974;2022-09-03T09:14:32;4.27;;;1.60;;
8230;SDS011;4156;50.908;6.974;2022-09-03T09:22:56;3.10;;;1.50;;
8230;SDS011;4156;50.908;6.974;2022-09-03T09:25:33;1.97;;;1.50;;
8230;SDS011;4156;50.908;6.974;2022-09-03T09:28:15;1.60;;;1.33;;
8230;SDS011;4156;50.908;6.974;2022-09-03T09:30:44;2.30;;;1.60;;
8230;SDS011;4156;50.908;6.974;2022-09-03T09:33:12;2.37;;;1.90;;
8230;SDS011;4156;50.908;6.974;2022-09-03T09:35:43;3.50;;;2.20;;
8230;SDS011;4156;50.908;6.974;2022-09-03T09:38:09;5.20;;;2.60;;
8230;SDS011;4156;50.908;6.974;2022-09-03T09:40:37;3.47;;;2.40;;
8230;SDS011;4156;50.908;6.974;2022-09-03T09:45:38;2.63;;;2.20;;
8230;SDS011;4156;50.908;6.974;2022-09-03T09:51:04;3.87;;;2.30;;
8230;SDS011;4156;50.908;6.974;2022-09-03T09:53:32;3.90;;;2.57;;
8230;SDS011;4156;50.908;6.974;2022-09-03T09:55:59;4.07;;;2.23;;
8230;SDS011;4156;50.908;6.974;2022-09-03T09:58:27;2.20;;;2.00;;
8230;SDS011;4156;50.908;6.974;2022-09-03T10:01:02;3.23;;;1.97;;
8230;SDS011;4156;50.908;6.974;2022-09-03T10:03:39;4.20;;;2.47;;
8230;SDS011;4156;50.908;6.974;2022-09-03T10:06:12;2.47;;;2.27;;
8230;SDS011;4156;50.908;6.974;2022-09-03T10:09:08;3.37;;;2.07;;
8230;SDS011;4156;50.908;6.974;2022-09-03T10:11:40;4.60;;;1.77;;
8230;SDS011;4156;50.908;6.974;2022-09-03T10:14:11;2.93;;;1.90;;
8230;SDS011;4156;50.908;6.974;2022-09-03T10:16:43;2.57;;;1.77;;
8230;SDS011;4156;50.908;6.974;2022-09-03T10:19:18;2.10;;;1.70;;
8230;SDS011;4156;50.908;6.974;2022-09-03T10:22:00;2.30;;;1.90;;
8230;SDS011;4156;50.908;6.974;2022-09-03T10:24:46;2.30;;;1.90;;
8230;SDS011;4156;50.908;6.974;2022-09-03T10:27:13;5.17;;;1.80;;
8230;SDS011;4156;50.908;6.974;2022-09-03T10:29:42;2.30;;;1.77;;
8230;SDS011;4156;50.908;6.974;2022-09-03T10:40:28;1.80;;;1.70;;
8230;SDS011;4156;50.908;6.974;2022-09-03T10:54:14;2.10;;;1.60;;
8230;SDS011;4156;50.908;6.974;2022-09-03T10:57:07;1.97;;;1.53;;
8230;SDS011;4156;50.908;6.974;2022-09-03T11:02:14;1.60;;;1.50;;
8230;SDS011;4156;50.908;6.974;2022-09-03T11:07:34;2.60;;;1.70;;
8230;SDS011;4156;50.908;6.974;2022-09-03T11:10:23;1.67;;;1.30;;
8230;SDS011;4156;50.908;6.974;2022-09-03T11:13:00;3.33;;;2.20;;
8230;SDS011;4156;50.908;6.974;2022-09-03T11:15:54;2.93;;;1.57;;
8230;SDS011;4156;50.908;6.974;2022-09-03T11:18:43;2.63;;;1.80;;
8230;SDS011;4156;50.908;6.974;2022-09-03T11:21:15;2.63;;;2.00;;
8230;SDS011;4156;50.908;6.974;2022-09-03T11:23:50;3.90;;;2.00;;
8230;SDS011;4156;50.908;6.974;2022-09-03T11:26:30;3.10;;;1.80;;
8230;SDS011;4156;50.908;6.974;2022-09-03T11:29:01;1.90;;;1.70;;
8230;SDS011;4156;50.908;6.974;2022-09-03T11:32:04;2.13;;;1.70;;
8230;SDS011;4156;50.908;6.974;2022-09-03T11:34:46;2.00;;;1.80;;
8230;SDS011;4156;50.908;6.974;2022-09-03T11:37:20;3.40;;;1.90;;
8230;SDS011;4156;50.908;6.974;2022-09-03T11:39:53;3.10;;;1.80;;
8230;SDS011;4156;50.908;6.974;2022-09-03T11:42:28;2.00;;;1.40;;
8230;SDS011;4156;50.908;6.974;2022-09-03T11:45:11;3.83;;;1.97;;
8230;SDS011;4156;50.908;6.974;2022-09-03T11:47:42;3.00;;;2.00;;
8230;SDS011;4156;50.908;6.974;2022-09-03T11:53:08;2.23;;;1.73;;
8230;SDS011;4156;50.908;6.974;2022-09-03T11:55:54;3.93;;;2.20;;
8230;SDS011;4156;50.908;6.974;2022-09-03T11:58:29;2.47;;;2.00;;
8230;SDS011;4156;50.908;6.974;2022-09-03T12:00:57;2.97;;;1.90;;
8230;SDS011;4156;50.908;6.974;2022-09-03T12:03:38;4.20;;;2.03;;
8230;SDS011;4156;50.908;6.974;2022-09-03T12:11:57;2.63;;;2.13;;
8230;SDS011;4156;50.908;6.974;2022-09-03T12:19:55;3.10;;;2.00;;
8230;SDS011;4156;50.908;6.974;2022-09-03T12:22:27;2.13;;;1.83;;
8230;SDS011;4156;50.908;6.974;2022-09-03T12:24:55;2.10;;;1.87;;
8230;SDS011;4156;50.908;6.974;2022-09-03T12:27:32;2.67;;;1.80;;
8230;SDS011;4156;50.908;6.974;2022-09-03T12:30:01;2.80;;;1.80;;
8230;SDS011;4156;50.908;6.974;2022-09-03T12:32:30;2.10;;;1.80;;
8230;SDS011;4156;50.908;6.974;2022-09-03T12:35:16;2.43;;;1.80;;
8230;SDS011;4156;50.908;6.974;2022-09-03T12:37:47;2.83;;;2.10;;
8230;SDS011;4156;50.908;6.974;2022-09-03T12:40:19;2.20;;;1.67;;
8230;SDS011;4156;50.908;6.974;2022-09-03T12:42:52;2.90;;;1.97;;
8230;SDS011;4156;50.908;6.974;2022-09-03T12:45:23;2.40;;;2.00;;
8230;SDS011;4156;50.908;6.974;2022-09-03T12:47:50;2.40;;;2.03;;
8230;SDS011;4156;50.908;6.974;2022-09-03T12:50:21;2.50;;;1.80;;
8230;SDS011;4156;50.908;6.974;2022-09-03T12:52:51;4.73;;;2.03;;
8230;SDS011;4156;50.908;6.974;2022-09-03T12:55:24;2.30;;;2.10;;
8230;SDS011;4156;50.908;6.974;2022-09-03T12:58:16;3.17;;;2.10;;
8230;SDS011;4156;50.908;6.974;2022-09-03T13:06:06;2.77;;;2.10;;
8230;SDS011;4156;50.908;6.974;2022-09-03T13:08:40;2.60;;;1.77;;
8230;SDS011;4156;50.908;6.974;2022-09-03T13:11:15;2.10;;;1.90;;
8230;SDS011;4156;50.908;6.974;2022-09-03T13:13:59;3.00;;;2.00;;
8230;SDS011;4156;50.908;6.974;2022-09-03T13:16:35;3.70;;;2.00;;
8230;SDS011;4156;50.908;6.974;2022-09-03T13:21:49;2.70;;;2.00;;
8230;SDS011;4156;50.908;6.974;2022-09-03T13:24:39;2.53;;;2.07;;
8230;SDS011;4156;50.908;6.974;2022-09-03T13:27:18;3.60;;;2.10;;
8230;SDS011;4156;50.908;6.974;2022-09-03T13:30:00;2.90;;;1.95;;
8230;SDS011;4156;50.908;6.974;2022-09-03T13:32:41;1.67;;;1.57;;
8230;SDS011;4156;50.908;6.974;2022-09-03T13:35:19;2.07;;;1.43;;
8230;SDS011;4156;50.908;6.974;2022-09-03T13:38:06;2.03;;;1.83;;
8230;SDS011;4156;50.908;6.974;2022-09-03T13:40:44;2.40;;;1.90;;
8230;SDS011;4156;50.908;6.974;2022-09-03T13:43:26;3.00;;;2.07;;
8230;SDS011;4156;50.908;6.974;2022-09-03T13:46:00;3.10;;;1.80;;
8230;SDS011;4156;50.908;6.974;2022-09-03T13:48:32;3.10;;;2.17;;
8230;SDS011;4156;50.908;6.974;2022-09-03T13:54:41;2.77;;;2.00;;
8230;SDS011;4156;50.908;6.974;2022-09-03T13:59:50;2.37;;;1.73;;
8230;SDS011;4156;50.908;6.974;2022-09-03T14:02:44;2.17;;;1.60;;
8230;SDS011;4156;50.908;6.974;2022-09-03T14:11:01;2.20;;;1.80;;
8230;SDS011;4156;50.908;6.974;2022-09-03T14:19:14;2.77;;;1.87;;
8230;SDS011;4156;50.908;6.974;2022-09-03T14:21:53;2.13;;;1.80;;
8230;SDS011;4156;50.908;6.974;2022-09-03T14:24:43;2.27;;;1.87;;
8230;SDS011;4156;50.908;6.974;2022-09-03T14:27:27;2.30;;;2.00;;
8230;SDS011;4156;50.908;6.974;2022-09-03T14:30:04;2.67;;;1.87;;
8230;SDS011;4156;50.908;6.974;2022-09-03T14:38:09;2.87;;;1.80;;
8230;SDS011;4156;50.908;6.974;2022-09-03T14:40:41;1.80;;;1.70;;
8230;SDS011;4156;50.908;6.974;2022-09-03T14:43:30;2.23;;;1.90;;
8230;SDS011;4156;50.908;6.974;2022-09-03T14:51:38;2.27;;;1.87;;
8230;SDS011;4156;50.908;6.974;2022-09-03T14:59:27;2.03;;;1.83;;
8230;SDS011;4156;50.908;6.974;2022-09-03T15:02:35;2.23;;;2.00;;
8230;SDS011;4156;50.908;6.974;2022-09-03T15:05:08;2.93;;;1.80;;
8230;SDS011;4156;50.908;6.974;2022-09-03T15:07:42;2.63;;;2.20;;
8230;SDS011;4156;50.908;6.974;2022-09-03T15:12:52;3.50;;;1.80;;
8230;SDS011;4156;50.908;6.974;2022-09-03T15:20:51;2.93;;;1.93;;
8230;SDS011;4156;50.908;6.974;2022-09-03T15:31:26;2.43;;;1.93;;
8230;SDS011;4156;50.908;6.974;2022-09-03T15:36:55;2.50;;;1.90;;
8230;SDS011;4156;50.908;6.974;2022-09-03T15:39:27;4.23;;;1.70;;
8230;SDS011;4156;50.908;6.974;2022-09-03T15:42:03;1.97;;;1.80;;
8230;SDS011;4156;50.908;6.974;2022-09-03T15:44:37;4.67;;;1.83;;
8230;SDS011;4156;50.908;6.974;2022-09-03T15:47:36;3.03;;;1.90;;
8230;SDS011;4156;50.908;6.974;2022-09-03T15:50:14;2.70;;;2.23;;
8230;SDS011;4156;50.908;6.974;2022-09-03T15:55:38;2.27;;;1.93;;
8230;SDS011;4156;50.908;6.974;2022-09-03T15:58:10;1.73;;;1.63;;
8230;SDS011;4156;50.908;6.974;2022-09-03T16:09:04;2.70;;;1.70;;
8230;SDS011;4156;50.908;6.974;2022-09-03T16:14:48;2.73;;;1.90;;
8230;SDS011;4156;50.908;6.974;2022-09-03T16:17:27;2.37;;;1.70;;
8230;SDS011;4156;50.908;6.974;2022-09-03T16:20:17;2.30;;;1.70;;
8230;SDS011;4156;50.908;6.974;2022-09-03T16:23:00;1.50;;;1.40;;
8230;SDS011;4156;50.908;6.974;2022-09-03T16:25:47;2.57;;;1.73;;
8230;SDS011;4156;50.908;6.974;2022-09-03T16:28:18;2.53;;;2.00;;
8230;SDS011;4156;50.908;6.974;2022-09-03T16:36:25;2.67;;;1.90;;
8230;SDS011;4156;50.908;6.974;2022-09-03T16:41:49;2.40;;;2.00;;
8230;SDS011;4156;50.908;6.974;2022-09-03T16:56:07;3.23;;;1.83;;
8230;SDS011;4156;50.908;6.974;2022-09-03T17:04:35;4.67;;;2.10;;
8230;SDS011;4156;50.908;6.974;2022-09-03T17:13:16;1.83;;;1.40;;
8230;SDS011;4156;50.908;6.974;2022-09-03T17:16:20;1.83;;;1.50;;
8230;SDS011;4156;50.908;6.974;2022-09-03T17:19:16;3.07;;;1.80;;
8230;SDS011;4156;50.908;6.974;2022-09-03T17:24:51;3.47;;;2.10;;
8230;SDS011;4156;50.908;6.974;2022-09-03T17:30:07;4.33;;;2.13;;
8230;SDS011;4156;50.908;6.974;2022-09-03T17:33:08;3.23;;;2.43;;
8230;SDS011;4156;50.908;6.974;2022-09-03T17:36:14;2.23;;;2.00;;
8230;SDS011;4156;50.908;6.974;2022-09-03T17:41:50;5.97;;;2.67;;
8230;SDS011;4156;50.908;6.974;2022-09-03T17:49:53;2.80;;;1.90;;
8230;SDS011;4156;50.908;6.974;2022-09-03T17:52:39;2.83;;;2.10;;
8230;SDS011;4156;50.908;6.974;2022-09-03T17:55:19;2.50;;;1.90;;
8230;SDS011;4156;50.908;6.974;2022-09-03T17:58:07;2.27;;;1.80;;
8230;SDS011;4156;50.908;6.974;2022-09-03T18:03:53;2.33;;;2.10;;
8230;SDS011;4156;50.908;6.974;2022-09-03T18:06:28;2.13;;;1.60;;
8230;SDS011;4156;50.908;6.974;2022-09-03T18:09:11;1.40;;;1.30;;
8230;SDS011;4156;50.908;6.974;2022-09-03T18:11:47;2.27;;;1.60;;
8230;SDS011;4156;50.908;6.974;2022-09-03T18:14:27;1.93;;;1.73;;
8230;SDS011;4156;50.908;6.974;2022-09-03T18:17:12;2.10;;;1.70;;
8230;SDS011;4156;50.908;6.974;2022-09-03T18:20:07;2.80;;;2.07;;
8230;SDS011;4156;50.908;6.974;2022-09-03T18:23:06;3.47;;;2.13;;
8230;SDS011;4156;50.908;6.974;2022-09-03T18:26:00;3.43;;;2.13;;
8230;SDS011;4156;50.908;6.974;2022-09-03T18:28:54;4.37;;;1.97;;
8230;SDS011;4156;50.908;6.974;2022-09-03T18:32:00;3.70;;;2.20;;
8230;SDS011;4156;50.908;6.974;2022-09-03T18:34:44;3.03;;;2.23;;
8230;SDS011;4156;50.908;6.974;2022-09-03T18:37:30;2.23;;;1.90;;
8230;SDS011;4156;50.908;6.974;2022-09-03T18:40:16;2.27;;;2.07;;
8230;SDS011;4156;50.908;6.974;2022-09-03T18:46:00;3.17;;;2.43;;
8230;SDS011;4156;50.908;6.974;2022-09-03T18:55:16;2.40;;;2.00;;
8230;SDS011;4156;50.908;6.974;2022-09-03T19:04:20;2.63;;;2.40;;
8230;SDS011;4156;50.908;6.974;2022-09-03T19:10:13;3.10;;;2.13;;
8230;SDS011;4156;50.908;6.974;2022-09-03T19:19:16;3.87;;;2.63;;
8230;SDS011;4156;50.908;6.974;2022-09-03T19:22:12;3.63;;;2.70;;
8230;SDS011;4156;50.908;6.974;2022-09-03T19:25:10;3.77;;;2.43;;
8230;SDS011;4156;50.908;6.974;2022-09-03T19:34:08;3.27;;;2.30;;
8230;SDS011;4156;50.908;6.974;2022-09-03T19:37:18;2.60;;;2.40;;
8230;SDS011;4156;50.908;6.974;2022-09-03T19:40:11;5.27;;;2.40;;
8230;SDS011;4156;50.908;6.974;2022-09-03T19:46:40;2.73;;;2.53;;
8230;SDS011;4156;50.908;6.974;2022-09-03T19:52:52;2.50;;;2.30;;
8230;SDS011;4156;50.908;6.974;2022-09-03T19:55:51;2.97;;;2.20;;
8230;SDS011;4156;50.908;6.974;2022-09-03T19:58:38;2.60;;;2.20;;
8230;SDS011;4156;50.908;6.974;2022-09-03T20:01:42;2.20;;;2.00;;
8230;SDS011;4156;50.908;6.974;2022-09-03T20:04:49;2.83;;;2.10;;
8230;SDS011;4156;50.908;6.974;2022-09-03T20:07:38;2.77;;;2.50;;
8230;SDS011;4156;50.908;6.974;2022-09-03T20:10:22;2.30;;;2.00;;
8230;SDS011;4156;50.908;6.974;2022-09-03T20:13:07;3.00;;;2.17;;
8230;SDS011;4156;50.908;6.974;2022-09-03T20:27:01;2.33;;;2.13;;
8230;SDS011;4156;50.908;6.974;2022-09-03T20:32:19;2.63;;;2.37;;
8230;SDS011;4156;50.908;6.974;2022-09-03T20:35:21;2.90;;;2.20;;
8230;SDS011;4156;50.908;6.974;2022-09-03T20:38:20;2.77;;;2.47;;
8230;SDS011;4156;50.908;6.974;2022-09-03T20:46:28;3.50;;;2.70;;
8230;SDS011;4156;50.908;6.974;2022-09-03T20:51:54;4.43;;;2.13;;
8230;SDS011;4156;50.908;6.974;2022-09-03T20:54:30;4.67;;;2.67;;
8230;SDS011;4156;50.908;6.974;2022-09-03T21:00:08;2.70;;;2.23;;
8230;SDS011;4156;50.908;6.974;2022-09-03T21:05:32;2.60;;;2.30;;
8230;SDS011;4156;50.908;6.974;2022-09-03T21:08:12;3.53;;;2.37;;
8230;SDS011;4156;50.908;6.974;2022-09-03T21:14:09;3.77;;;2.80;;
8230;SDS011;4156;50.908;6.974;2022-09-03T21:16:27;2.70;;;2.50;;
8230;SDS011;4156;50.908;6.974;2022-09-03T21:22:30;2.87;;;2.50;;
8230;SDS011;4156;50.908;6.974;2022-09-03T21:25:10;2.57;;;2.37;;